sensor_id;sensor_type;location;lat;lon;timestamp;pressure;altitude;pressure_sealevel;temperature;humidity
74310;BME280;62722;51.142;17.052;2023-05-14T00:02:25;100702.00;;;10.34;74.42
74310;BME280;62722;51.142;17.052;2023-05-14T00:04:52;100689.75;;;10.33;73.89
74310;BME280;62722;51.142;17.052;2023-05-14T00:07:21;100685.16;;;10.21;72.77
74310;BME280;62722;51.142;17.052;2023-05-14T00:09:48;100690.44;;;10.21;74.14
74310;BME280;62722;51.142;17.052;2023-05-14T00:12:16;100684.41;;;10.19;74.72
74310;BME280;62722;51.142;17.052;2023-05-14T00:14:43;100672.66;;;10.24;74.23
74310;BME280;62722;51.142;17.052;2023-05-14T00:17:10;100674.78;;;10.18;73.65
74310;BME280;62722;51.142;17.052;2023-05-14T00:19:38;100679.56;;;10.27;74.08
74310;BME280;62722;51.142;17.052;2023-05-14T00:22:06;100676.13;;;10.25;74.27
74310;BME280;62722;51.142;17.052;2023-05-14T00:24:35;100679.19;;;10.33;73.95
74310;BME280;62722;51.142;17.052;2023-05-14T00:27:03;100670.59;;;10.30;73.95
74310;BME280;62722;51.142;17.052;2023-05-14T00:29:31;100681.75;;;10.35;73.99
74310;BME280;62722;51.142;17.052;2023-05-14T00:31:58;100679.59;;;10.41;73.58
74310;BME280;62722;51.142;17.052;2023-05-14T00:34:26;100676.59;;;10.47;73.30
74310;BME280;62722;51.142;17.052;2023-05-14T00:36:53;100677.19;;;10.52;73.44
74310;BME280;62722;51.142;17.052;2023-05-14T00:39:21;100677.66;;;10.59;73.28
74310;BME280;62722;51.142;17.052;2023-05-14T00:41:49;100679.03;;;10.50;73.21
74310;BME280;62722;51.142;17.052;2023-05-14T00:44:17;100677.38;;;10.49;73.37
74310;BME280;62722;51.142;17.052;2023-05-14T00:46:44;100678.31;;;10.48;72.96
74310;BME280;62722;51.142;17.052;2023-05-14T00:49:11;100686.63;;;10.56;73.33
74310;BME280;62722;51.142;17.052;2023-05-14T00:51:39;100680.03;;;10.63;73.35
74310;BME280;62722;51.142;17.052;2023-05-14T00:54:07;100678.63;;;10.72;72.84
74310;BME280;62722;51.142;17.052;2023-05-14T00:56:35;100682.03;;;10.74;70.46
74310;BME280;62722;51.142;17.052;2023-05-14T00:59:04;100686.00;;;10.67;69.44
74310;BME280;62722;51.142;17.052;2023-05-14T01:01:31;100675.69;;;10.62;69.20
74310;BME280;62722;51.142;17.052;2023-05-14T01:03:59;100670.88;;;10.55;68.76
74310;BME280;62722;51.142;17.052;2023-05-14T01:06:34;100671.97;;;10.51;68.93
74310;BME280;62722;51.142;17.052;2023-05-14T01:09:10;100678.59;;;10.58;70.69
74310;BME280;62722;51.142;17.052;2023-05-14T01:11:44;100673.13;;;10.61;69.20
74310;BME280;62722;51.142;17.052;2023-05-14T01:14:21;100673.81;;;10.64;69.40
74310;BME280;62722;51.142;17.052;2023-05-14T01:16:54;100670.03;;;10.68;69.37
74310;BME280;62722;51.142;17.052;2023-05-14T01:19:28;100660.81;;;10.75;70.51
74310;BME280;62722;51.142;17.052;2023-05-14T01:22:00;100662.53;;;10.77;68.67
74310;BME280;62722;51.142;17.052;2023-05-14T01:24:28;100658.00;;;10.79;68.10
74310;BME280;62722;51.142;17.052;2023-05-14T01:27:00;100658.84;;;10.79;67.98
74310;BME280;62722;51.142;17.052;2023-05-14T01:29:30;100654.91;;;10.86;68.81
74310;BME280;62722;51.142;17.052;2023-05-14T01:31:59;100663.31;;;10.93;69.68
74310;BME280;62722;51.142;17.052;2023-05-14T01:34:29;100661.41;;;10.95;68.80
74310;BME280;62722;51.142;17.052;2023-05-14T01:36:57;100663.78;;;10.99;68.19
74310;BME280;62722;51.142;17.052;2023-05-14T01:39:26;100659.72;;;10.94;67.64
74310;BME280;62722;51.142;17.052;2023-05-14T01:41:56;100660.75;;;10.91;67.04
74310;BME280;62722;51.142;17.052;2023-05-14T01:44:25;100652.09;;;10.89;67.60
74310;BME280;62722;51.142;17.052;2023-05-14T01:46:52;100654.81;;;10.88;67.59
74310;BME280;62722;51.142;17.052;2023-05-14T01:49:19;100653.88;;;10.89;68.73
74310;BME280;62722;51.142;17.052;2023-05-14T01:51:47;100648.47;;;10.90;69.63
74310;BME280;62722;51.142;17.052;2023-05-14T01:54:14;100650.38;;;10.88;68.69
74310;BME280;62722;51.142;17.052;2023-05-14T01:56:43;100646.22;;;10.84;68.03
74310;BME280;62722;51.142;17.052;2023-05-14T01:59:11;100641.59;;;10.73;68.20
74310;BME280;62722;51.142;17.052;2023-05-14T02:01:38;100644.81;;;10.79;69.93
74310;BME280;62722;51.142;17.052;2023-05-14T02:04:05;100643.69;;;10.83;69.80
74310;BME280;62722;51.142;17.052;2023-05-14T02:06:32;100636.78;;;10.80;68.38
74310;BME280;62722;51.142;17.052;2023-05-14T02:09:00;100634.25;;;10.79;68.04
74310;BME280;62722;51.142;17.052;2023-05-14T02:11:27;100640.47;;;10.78;68.20
74310;BME280;62722;51.142;17.052;2023-05-14T02:13:56;100640.19;;;10.82;69.79
74310;BME280;62722;51.142;17.052;2023-05-14T02:16:23;100636.78;;;10.80;70.32
74310;BME280;62722;51.142;17.052;2023-05-14T02:18:50;100646.13;;;10.86;70.81
74310;BME280;62722;51.142;17.052;2023-05-14T02:21:18;100648.00;;;10.84;70.87
74310;BME280;62722;51.142;17.052;2023-05-14T02:23:45;100642.91;;;10.81;71.09
74310;BME280;62722;51.142;17.052;2023-05-14T02:26:14;100645.56;;;10.81;71.24
74310;BME280;62722;51.142;17.052;2023-05-14T02:28:41;100640.00;;;10.71;72.35
74310;BME280;62722;51.142;17.052;2023-05-14T02:31:10;100648.19;;;10.66;72.61
74310;BME280;62722;51.142;17.052;2023-05-14T02:33:37;100645.13;;;10.58;72.63
74310;BME280;62722;51.142;17.052;2023-05-14T02:36:05;100639.84;;;10.44;71.38
74310;BME280;62722;51.142;17.052;2023-05-14T02:38:32;100641.81;;;10.41;73.26
74310;BME280;62722;51.142;17.052;2023-05-14T02:40:59;100642.72;;;10.40;73.15
74310;BME280;62722;51.142;17.052;2023-05-14T02:43:27;100642.44;;;10.30;72.16
74310;BME280;62722;51.142;17.052;2023-05-14T02:45:54;100628.84;;;10.22;71.50
74310;BME280;62722;51.142;17.052;2023-05-14T02:48:23;100638.00;;;10.31;72.91
74310;BME280;62722;51.142;17.052;2023-05-14T02:50:50;100629.72;;;10.37;73.31
74310;BME280;62722;51.142;17.052;2023-05-14T02:53:18;100628.13;;;10.34;70.59
74310;BME280;62722;51.142;17.052;2023-05-14T02:55:45;100625.50;;;10.34;70.95
74310;BME280;62722;51.142;17.052;2023-05-14T02:58:12;100623.53;;;10.38;70.66
74310;BME280;62722;51.142;17.052;2023-05-14T03:00:40;100621.06;;;10.35;70.31
74310;BME280;62722;51.142;17.052;2023-05-14T03:03:07;100621.44;;;10.43;71.99
74310;BME280;62722;51.142;17.052;2023-05-14T03:05:36;100622.09;;;10.46;72.46
74310;BME280;62722;51.142;17.052;2023-05-14T03:08:04;100611.28;;;10.51;71.78
74310;BME280;62722;51.142;17.052;2023-05-14T03:10:31;100618.06;;;10.41;69.72
74310;BME280;62722;51.142;17.052;2023-05-14T03:12:58;100623.16;;;10.44;71.75
74310;BME280;62722;51.142;17.052;2023-05-14T03:15:26;100624.75;;;10.46;72.08
74310;BME280;62722;51.142;17.052;2023-05-14T03:17:53;100626.53;;;10.46;72.32
74310;BME280;62722;51.142;17.052;2023-05-14T03:20:22;100620.25;;;10.48;71.26
74310;BME280;62722;51.142;17.052;2023-05-14T03:22:52;100627.91;;;10.53;72.36
74310;BME280;62722;51.142;17.052;2023-05-14T03:25:20;100634.38;;;10.47;73.10
74310;BME280;62722;51.142;17.052;2023-05-14T03:27:48;100637.00;;;10.47;73.25
74310;BME280;62722;51.142;17.052;2023-05-14T03:30:15;100638.56;;;10.36;72.33
74310;BME280;62722;51.142;17.052;2023-05-14T03:32:42;100638.03;;;10.15;71.42
74310;BME280;62722;51.142;17.052;2023-05-14T03:35:10;100638.09;;;10.13;73.17
74310;BME280;62722;51.142;17.052;2023-05-14T03:37:37;100636.84;;;10.05;71.93
74310;BME280;62722;51.142;17.052;2023-05-14T03:40:07;100635.47;;;9.98;71.64
74310;BME280;62722;51.142;17.052;2023-05-14T03:42:35;100629.47;;;9.96;71.98
74310;BME280;62722;51.142;17.052;2023-05-14T03:45:02;100632.28;;;9.93;71.97
74310;BME280;62722;51.142;17.052;2023-05-14T03:47:30;100624.63;;;9.88;71.75
74310;BME280;62722;51.142;17.052;2023-05-14T03:49:57;100639.50;;;9.89;72.06
74310;BME280;62722;51.142;17.052;2023-05-14T03:52:24;100630.56;;;9.92;71.95
74310;BME280;62722;51.142;17.052;2023-05-14T03:54:52;100640.94;;;9.95;72.06
74310;BME280;62722;51.142;17.052;2023-05-14T03:57:20;100636.50;;;9.95;71.95
74310;BME280;62722;51.142;17.052;2023-05-14T03:59:48;100628.84;;;9.91;71.76
74310;BME280;62722;51.142;17.052;2023-05-14T04:02:15;100629.53;;;9.94;71.80
74310;BME280;62722;51.142;17.052;2023-05-14T04:04:42;100624.09;;;9.97;72.05
74310;BME280;62722;51.142;17.052;2023-05-14T04:07:10;100629.38;;;9.97;71.84
74310;BME280;62722;51.142;17.052;2023-05-14T04:09:37;100628.34;;;10.00;71.71
74310;BME280;62722;51.142;17.052;2023-05-14T04:12:05;100623.75;;;10.03;71.16
74310;BME280;62722;51.142;17.052;2023-05-14T04:14:34;100622.72;;;10.06;70.94
74310;BME280;62722;51.142;17.052;2023-05-14T04:17:02;100628.41;;;10.14;71.07
74310;BME280;62722;51.142;17.052;2023-05-14T04:19:29;100630.69;;;10.20;70.68
74310;BME280;62722;51.142;17.052;2023-05-14T04:21:57;100623.38;;;10.25;70.61
74310;BME280;62722;51.142;17.052;2023-05-14T04:24:24;100624.97;;;10.27;70.92
74310;BME280;62722;51.142;17.052;2023-05-14T04:26:51;100631.50;;;10.36;70.12
74310;BME280;62722;51.142;17.052;2023-05-14T04:29:18;100631.25;;;10.41;69.84
74310;BME280;62722;51.142;17.052;2023-05-14T04:31:48;100624.84;;;10.45;70.44
74310;BME280;62722;51.142;17.052;2023-05-14T04:34:15;100628.91;;;10.50;70.62
74310;BME280;62722;51.142;17.052;2023-05-14T04:36:43;100628.38;;;10.59;69.36
74310;BME280;62722;51.142;17.052;2023-05-14T04:39:10;100623.56;;;10.66;69.37
74310;BME280;62722;51.142;17.052;2023-05-14T04:41:38;100618.03;;;10.70;69.19
74310;BME280;62722;51.142;17.052;2023-05-14T04:44:05;100624.63;;;10.78;68.79
74310;BME280;62722;51.142;17.052;2023-05-14T04:46:33;100629.78;;;10.79;68.20
74310;BME280;62722;51.142;17.052;2023-05-14T04:49:01;100619.94;;;10.83;68.54
74310;BME280;62722;51.142;17.052;2023-05-14T04:51:29;100612.00;;;10.83;67.55
74310;BME280;62722;51.142;17.052;2023-05-14T04:53:56;100616.13;;;10.87;68.18
74310;BME280;62722;51.142;17.052;2023-05-14T04:56:24;100610.56;;;10.91;68.11
74310;BME280;62722;51.142;17.052;2023-05-14T04:58:51;100612.66;;;11.00;68.29
74310;BME280;62722;51.142;17.052;2023-05-14T05:01:19;100607.75;;;11.08;67.89
74310;BME280;62722;51.142;17.052;2023-05-14T05:03:47;100604.91;;;11.11;67.44
74310;BME280;62722;51.142;17.052;2023-05-14T05:06:15;100613.09;;;11.21;67.68
74310;BME280;62722;51.142;17.052;2023-05-14T05:08:43;100604.97;;;11.24;67.00
74310;BME280;62722;51.142;17.052;2023-05-14T05:11:10;100606.28;;;11.31;67.15
74310;BME280;62722;51.142;17.052;2023-05-14T05:13:37;100605.94;;;11.37;66.96
74310;BME280;62722;51.142;17.052;2023-05-14T05:16:05;100602.47;;;11.49;67.12
74310;BME280;62722;51.142;17.052;2023-05-14T05:18:32;100601.34;;;11.53;66.26
74310;BME280;62722;51.142;17.052;2023-05-14T05:21:00;100596.31;;;11.63;66.60
74310;BME280;62722;51.142;17.052;2023-05-14T05:23:29;100598.47;;;11.70;65.71
74310;BME280;62722;51.142;17.052;2023-05-14T05:25:56;100593.56;;;11.79;66.10
74310;BME280;62722;51.142;17.052;2023-05-14T05:28:23;100595.59;;;11.88;66.30
74310;BME280;62722;51.142;17.052;2023-05-14T05:30:51;100590.03;;;11.92;65.68
74310;BME280;62722;51.142;17.052;2023-05-14T05:33:18;100586.31;;;11.95;65.19
74310;BME280;62722;51.142;17.052;2023-05-14T05:35:45;100589.59;;;11.98;65.34
74310;BME280;62722;51.142;17.052;2023-05-14T05:38:15;100588.47;;;12.02;65.45
74310;BME280;62722;51.142;17.052;2023-05-14T05:40:44;100586.38;;;12.07;65.30
74310;BME280;62722;51.142;17.052;2023-05-14T05:43:11;100587.66;;;12.14;65.23
74310;BME280;62722;51.142;17.052;2023-05-14T05:45:39;100586.19;;;12.23;65.18
74310;BME280;62722;51.142;17.052;2023-05-14T05:48:06;100587.47;;;12.30;65.63
74310;BME280;62722;51.142;17.052;2023-05-14T05:50:37;100587.91;;;12.37;64.61
74310;BME280;62722;51.142;17.052;2023-05-14T05:53:04;100584.75;;;12.44;65.19
74310;BME280;62722;51.142;17.052;2023-05-14T05:55:31;100585.56;;;12.57;64.73
74310;BME280;62722;51.142;17.052;2023-05-14T05:58:00;100581.88;;;12.73;64.05
74310;BME280;62722;51.142;17.052;2023-05-14T06:00:28;100588.44;;;12.80;63.60
74310;BME280;62722;51.142;17.052;2023-05-14T06:02:55;100588.75;;;12.88;64.63
74310;BME280;62722;51.142;17.052;2023-05-14T06:05:23;100597.25;;;12.93;63.60
74310;BME280;62722;51.142;17.052;2023-05-14T06:07:51;100588.22;;;12.95;63.13
74310;BME280;62722;51.142;17.052;2023-05-14T06:10:19;100584.09;;;13.04;63.45
74310;BME280;62722;51.142;17.052;2023-05-14T06:12:49;100586.97;;;13.13;63.65
74310;BME280;62722;51.142;17.052;2023-05-14T06:15:18;100596.16;;;13.21;62.87
74310;BME280;62722;51.142;17.052;2023-05-14T06:17:45;100578.88;;;13.28;62.98
74310;BME280;62722;51.142;17.052;2023-05-14T06:20:12;100578.31;;;13.35;63.14
74310;BME280;62722;51.142;17.052;2023-05-14T06:22:40;100578.72;;;13.42;63.37
74310;BME280;62722;51.142;17.052;2023-05-14T06:25:08;100579.16;;;13.48;63.04
74310;BME280;62722;51.142;17.052;2023-05-14T06:27:35;100575.31;;;13.52;64.12
74310;BME280;62722;51.142;17.052;2023-05-14T06:30:03;100576.56;;;13.59;62.25
74310;BME280;62722;51.142;17.052;2023-05-14T06:32:33;100572.06;;;13.60;62.62
74310;BME280;62722;51.142;17.052;2023-05-14T06:35:00;100586.94;;;13.62;62.38
74310;BME280;62722;51.142;17.052;2023-05-14T06:37:27;100585.13;;;13.63;61.64
74310;BME280;62722;51.142;17.052;2023-05-14T06:39:55;100572.50;;;13.67;62.06
74310;BME280;62722;51.142;17.052;2023-05-14T06:42:22;100573.13;;;13.70;62.29
74310;BME280;62722;51.142;17.052;2023-05-14T06:44:53;100572.41;;;13.79;62.07
74310;BME280;62722;51.142;17.052;2023-05-14T06:47:20;100582.13;;;13.91;61.82
74310;BME280;62722;51.142;17.052;2023-05-14T06:49:49;100579.53;;;14.02;60.98
74310;BME280;62722;51.142;17.052;2023-05-14T06:52:16;100562.69;;;14.14;60.99
74310;BME280;62722;51.142;17.052;2023-05-14T06:54:44;100568.13;;;14.24;60.17
74310;BME280;62722;51.142;17.052;2023-05-14T06:57:11;100555.28;;;14.42;60.43
74310;BME280;62722;51.142;17.052;2023-05-14T06:59:38;100560.53;;;14.54;59.92
74310;BME280;62722;51.142;17.052;2023-05-14T07:02:06;100558.47;;;14.69;59.86
74310;BME280;62722;51.142;17.052;2023-05-14T07:04:35;100557.28;;;14.84;59.30
74310;BME280;62722;51.142;17.052;2023-05-14T07:07:03;100546.53;;;14.97;58.82
74310;BME280;62722;51.142;17.052;2023-05-14T07:09:32;100545.22;;;15.02;59.31
74310;BME280;62722;51.142;17.052;2023-05-14T07:11:59;100530.44;;;15.09;57.66
74310;BME280;62722;51.142;17.052;2023-05-14T07:14:26;100533.34;;;15.18;57.42
74310;BME280;62722;51.142;17.052;2023-05-14T07:16:53;100529.34;;;15.12;58.16
74310;BME280;62722;51.142;17.052;2023-05-14T07:19:22;100519.94;;;15.08;57.75
74310;BME280;62722;51.142;17.052;2023-05-14T07:21:49;100523.41;;;15.31;55.80
74310;BME280;62722;51.142;17.052;2023-05-14T07:24:19;100526.63;;;15.45;54.87
74310;BME280;62722;51.142;17.052;2023-05-14T07:26:46;100523.72;;;15.48;54.20
74310;BME280;62722;51.142;17.052;2023-05-14T07:29:15;100534.88;;;15.53;53.70
74310;BME280;62722;51.142;17.052;2023-05-14T07:31:42;100523.38;;;15.53;54.21
74310;BME280;62722;51.142;17.052;2023-05-14T07:34:10;100523.25;;;15.54;54.52
74310;BME280;62722;51.142;17.052;2023-05-14T07:36:38;100523.00;;;15.46;56.24
74310;BME280;62722;51.142;17.052;2023-05-14T07:39:06;100522.03;;;15.47;56.57
74310;BME280;62722;51.142;17.052;2023-05-14T07:41:34;100515.13;;;15.45;55.47
74310;BME280;62722;51.142;17.052;2023-05-14T07:44:02;100516.97;;;15.44;56.34
74310;BME280;62722;51.142;17.052;2023-05-14T07:46:29;100507.25;;;15.66;53.67
74310;BME280;62722;51.142;17.052;2023-05-14T07:48:57;100512.84;;;15.63;54.35
74310;BME280;62722;51.142;17.052;2023-05-14T07:51:24;100513.75;;;15.73;53.84
74310;BME280;62722;51.142;17.052;2023-05-14T07:53:53;100512.50;;;15.88;51.83
74310;BME280;62722;51.142;17.052;2023-05-14T07:56:21;100511.97;;;15.94;52.32
74310;BME280;62722;51.142;17.052;2023-05-14T07:58:51;100507.81;;;16.01;52.71
74310;BME280;62722;51.142;17.052;2023-05-14T08:01:19;100507.06;;;16.10;51.62
74310;BME280;62722;51.142;17.052;2023-05-14T08:03:48;100508.47;;;16.14;50.94
74310;BME280;62722;51.142;17.052;2023-05-14T08:06:16;100503.94;;;16.26;50.55
74310;BME280;62722;51.142;17.052;2023-05-14T08:08:46;100504.69;;;16.37;49.89
74310;BME280;62722;51.142;17.052;2023-05-14T08:11:14;100505.41;;;16.39;49.89
74310;BME280;62722;51.142;17.052;2023-05-14T08:13:45;100494.59;;;16.41;49.89
74310;BME280;62722;51.142;17.052;2023-05-14T08:16:14;100504.81;;;16.57;46.81
74310;BME280;62722;51.142;17.052;2023-05-14T08:18:43;100496.09;;;16.54;47.57
74310;BME280;62722;51.142;17.052;2023-05-14T08:21:11;100487.88;;;16.58;48.65
74310;BME280;62722;51.142;17.052;2023-05-14T08:23:39;100493.13;;;16.69;47.22
74310;BME280;62722;51.142;17.052;2023-05-14T08:26:07;100491.13;;;16.71;47.84
74310;BME280;62722;51.142;17.052;2023-05-14T08:28:35;100482.53;;;16.58;49.05
74310;BME280;62722;51.142;17.052;2023-05-14T08:31:03;100478.47;;;16.63;48.71
74310;BME280;62722;51.142;17.052;2023-05-14T08:33:33;100482.63;;;16.77;47.62
74310;BME280;62722;51.142;17.052;2023-05-14T08:36:01;100477.69;;;16.72;49.09
74310;BME280;62722;51.142;17.052;2023-05-14T08:38:29;100474.25;;;16.91;46.83
74310;BME280;62722;51.142;17.052;2023-05-14T08:40:58;100483.84;;;17.03;46.58
74310;BME280;62722;51.142;17.052;2023-05-14T08:43:36;100475.13;;;17.01;46.97
74310;BME280;62722;51.142;17.052;2023-05-14T08:46:11;100476.81;;;17.02;47.02
74310;BME280;62722;51.142;17.052;2023-05-14T08:48:46;100474.28;;;17.00;47.20
74310;BME280;62722;51.142;17.052;2023-05-14T08:51:16;100478.75;;;17.00;46.77
74310;BME280;62722;51.142;17.052;2023-05-14T08:53:44;100460.81;;;17.02;46.44
74310;BME280;62722;51.142;17.052;2023-05-14T08:56:17;100464.63;;;17.09;46.69
74310;BME280;62722;51.142;17.052;2023-05-14T08:58:47;100461.53;;;17.14;45.62
74310;BME280;62722;51.142;17.052;2023-05-14T09:01:15;100463.25;;;17.24;44.69
74310;BME280;62722;51.142;17.052;2023-05-14T09:03:46;100456.50;;;17.20;45.46
74310;BME280;62722;51.142;17.052;2023-05-14T09:06:15;100447.25;;;17.24;44.98
74310;BME280;62722;51.142;17.052;2023-05-14T09:08:45;100446.41;;;17.24;46.00
74310;BME280;62722;51.142;17.052;2023-05-14T09:11:13;100450.03;;;17.23;44.46
74310;BME280;62722;51.142;17.052;2023-05-14T09:13:41;100447.66;;;17.20;45.91
74310;BME280;62722;51.142;17.052;2023-05-14T09:16:11;100448.94;;;17.25;46.23
74310;BME280;62722;51.142;17.052;2023-05-14T09:18:43;100447.22;;;17.15;46.12
74310;BME280;62722;51.142;17.052;2023-05-14T09:21:14;100441.75;;;17.07;47.00
74310;BME280;62722;51.142;17.052;2023-05-14T09:23:44;100432.06;;;17.15;46.88
74310;BME280;62722;51.142;17.052;2023-05-14T09:26:16;100439.94;;;17.26;45.68
74310;BME280;62722;51.142;17.052;2023-05-14T09:28:45;100437.13;;;17.28;46.35
74310;BME280;62722;51.142;17.052;2023-05-14T09:31:14;100435.44;;;17.17;44.54
74310;BME280;62722;51.142;17.052;2023-05-14T09:33:49;100418.31;;;17.10;46.50
74310;BME280;62722;51.142;17.052;2023-05-14T09:36:19;100417.91;;;17.34;45.29
74310;BME280;62722;51.142;17.052;2023-05-14T09:38:48;100418.06;;;17.61;45.20
74310;BME280;62722;51.142;17.052;2023-05-14T09:41:16;100410.59;;;17.74;44.98
74310;BME280;62722;51.142;17.052;2023-05-14T09:43:45;100401.19;;;17.80;44.39
74310;BME280;62722;51.142;17.052;2023-05-14T09:46:13;100400.25;;;17.62;44.42
74310;BME280;62722;51.142;17.052;2023-05-14T09:48:41;100398.38;;;17.52;44.19
74310;BME280;62722;51.142;17.052;2023-05-14T09:51:09;100396.16;;;17.58;45.34
74310;BME280;62722;51.142;17.052;2023-05-14T09:53:43;100396.25;;;17.56;45.10
74310;BME280;62722;51.142;17.052;2023-05-14T09:56:17;100385.34;;;17.40;44.36
74310;BME280;62722;51.142;17.052;2023-05-14T09:58:48;100391.38;;;17.32;44.87
74310;BME280;62722;51.142;17.052;2023-05-14T10:01:18;100386.47;;;17.28;45.51
74310;BME280;62722;51.142;17.052;2023-05-14T10:03:48;100384.66;;;17.57;45.21
74310;BME280;62722;51.142;17.052;2023-05-14T10:06:18;100384.31;;;17.89;43.74
74310;BME280;62722;51.142;17.052;2023-05-14T10:09:12;100389.72;;;18.16;43.24
74310;BME280;62722;51.142;17.052;2023-05-14T10:11:43;100371.13;;;18.24;43.09
74310;BME280;62722;51.142;17.052;2023-05-14T10:14:16;100374.28;;;18.37;43.05
74310;BME280;62722;51.142;17.052;2023-05-14T10:16:48;100371.06;;;18.43;42.70
74310;BME280;62722;51.142;17.052;2023-05-14T10:19:20;100377.63;;;18.49;43.23
74310;BME280;62722;51.142;17.052;2023-05-14T10:21:54;100366.66;;;18.52;44.15
74310;BME280;62722;51.142;17.052;2023-05-14T10:24:26;100372.56;;;18.56;43.68
74310;BME280;62722;51.142;17.052;2023-05-14T10:27:02;100374.53;;;18.44;43.96
74310;BME280;62722;51.142;17.052;2023-05-14T10:29:33;100357.06;;;18.22;44.86
74310;BME280;62722;51.142;17.052;2023-05-14T10:32:04;100356.56;;;18.09;45.15
74310;BME280;62722;51.142;17.052;2023-05-14T10:34:36;100362.69;;;17.92;45.72
74310;BME280;62722;51.142;17.052;2023-05-14T10:37:08;100347.09;;;17.87;46.60
74310;BME280;62722;51.142;17.052;2023-05-14T10:39:43;100355.84;;;18.07;48.33
74310;BME280;62722;51.142;17.052;2023-05-14T10:42:12;100351.03;;;18.20;42.87
74310;BME280;62722;51.142;17.052;2023-05-14T10:44:47;100351.72;;;18.22;43.16
74310;BME280;62722;51.142;17.052;2023-05-14T10:47:16;100344.31;;;18.16;43.21
74310;BME280;62722;51.142;17.052;2023-05-14T10:49:46;100342.13;;;18.02;42.50
74310;BME280;62722;51.142;17.052;2023-05-14T10:52:16;100333.88;;;17.86;43.17
74310;BME280;62722;51.142;17.052;2023-05-14T10:54:50;100337.25;;;17.78;43.36
74310;BME280;62722;51.142;17.052;2023-05-14T10:57:20;100343.03;;;17.74;43.27
74310;BME280;62722;51.142;17.052;2023-05-14T10:59:51;100341.66;;;17.70;43.15
74310;BME280;62722;51.142;17.052;2023-05-14T11:02:21;100338.56;;;17.65;43.26
74310;BME280;62722;51.142;17.052;2023-05-14T11:04:54;100328.72;;;17.65;43.73
74310;BME280;62722;51.142;17.052;2023-05-14T11:07:27;100329.28;;;17.69;45.38
74310;BME280;62722;51.142;17.052;2023-05-14T11:10:03;100323.22;;;17.76;45.98
74310;BME280;62722;51.142;17.052;2023-05-14T11:12:32;100314.34;;;17.85;45.33
74310;BME280;62722;51.142;17.052;2023-05-14T11:15:03;100313.97;;;18.08;44.56
74310;BME280;62722;51.142;17.052;2023-05-14T11:17:34;100311.22;;;18.27;43.81
74310;BME280;62722;51.142;17.052;2023-05-14T11:20:03;100310.41;;;18.54;43.90
74310;BME280;62722;51.142;17.052;2023-05-14T11:22:34;100316.84;;;18.78;42.07
74310;BME280;62722;51.142;17.052;2023-05-14T11:25:05;100304.41;;;18.69;41.82
74310;BME280;62722;51.142;17.052;2023-05-14T11:27:36;100311.16;;;18.64;42.35
74310;BME280;62722;51.142;17.052;2023-05-14T11:30:12;100310.72;;;18.68;41.85
74310;BME280;62722;51.142;17.052;2023-05-14T11:32:41;100305.38;;;18.68;41.81
74310;BME280;62722;51.142;17.052;2023-05-14T11:35:10;100304.31;;;18.79;41.67
74310;BME280;62722;51.142;17.052;2023-05-14T11:37:39;100306.84;;;18.80;41.86
74310;BME280;62722;51.142;17.052;2023-05-14T11:40:14;100298.19;;;18.69;41.46
74310;BME280;62722;51.142;17.052;2023-05-14T11:42:42;100298.13;;;18.78;42.22
74310;BME280;62722;51.142;17.052;2023-05-14T11:45:11;100298.97;;;18.79;41.49
74310;BME280;62722;51.142;17.052;2023-05-14T11:47:40;100286.88;;;18.75;41.44
74310;BME280;62722;51.142;17.052;2023-05-14T11:50:08;100290.94;;;18.79;41.45
74310;BME280;62722;51.142;17.052;2023-05-14T11:52:37;100291.41;;;18.74;40.36
74310;BME280;62722;51.142;17.052;2023-05-14T11:55:11;100291.88;;;18.70;41.46
74310;BME280;62722;51.142;17.052;2023-05-14T11:57:38;100285.59;;;18.79;41.19
74310;BME280;62722;51.142;17.052;2023-05-14T12:00:08;100281.09;;;18.79;40.56
74310;BME280;62722;51.142;17.052;2023-05-14T12:02:42;100269.88;;;18.76;42.01
74310;BME280;62722;51.142;17.052;2023-05-14T12:05:11;100273.91;;;18.98;41.58
74310;BME280;62722;51.142;17.052;2023-05-14T12:07:39;100272.59;;;19.02;39.82
74310;BME280;62722;51.142;17.052;2023-05-14T12:10:07;100264.19;;;18.96;41.31
74310;BME280;62722;51.142;17.052;2023-05-14T12:12:36;100266.88;;;18.96;41.27
74310;BME280;62722;51.142;17.052;2023-05-14T12:15:10;100270.69;;;18.94;42.04
74310;BME280;62722;51.142;17.052;2023-05-14T12:17:38;100271.75;;;19.01;41.27
74310;BME280;62722;51.142;17.052;2023-05-14T12:20:08;100272.66;;;18.92;41.06
74310;BME280;62722;51.142;17.052;2023-05-14T12:22:37;100272.00;;;18.90;40.99
74310;BME280;62722;51.142;17.052;2023-05-14T12:25:10;100271.38;;;18.96;41.68
74310;BME280;62722;51.142;17.052;2023-05-14T12:27:40;100261.34;;;19.16;41.02
74310;BME280;62722;51.142;17.052;2023-05-14T12:30:12;100257.44;;;19.28;39.63
74310;BME280;62722;51.142;17.052;2023-05-14T12:32:40;100249.13;;;19.13;39.96
74310;BME280;62722;51.142;17.052;2023-05-14T12:35:10;100256.22;;;19.22;41.14
74310;BME280;62722;51.142;17.052;2023-05-14T12:37:38;100251.63;;;19.32;39.23
74310;BME280;62722;51.142;17.052;2023-05-14T12:40:06;100248.72;;;19.26;40.79
74310;BME280;62722;51.142;17.052;2023-05-14T12:42:34;100244.41;;;19.33;40.29
74310;BME280;62722;51.142;17.052;2023-05-14T12:45:04;100236.44;;;19.41;40.67
74310;BME280;62722;51.142;17.052;2023-05-14T12:47:33;100229.75;;;19.63;40.63
74310;BME280;62722;51.142;17.052;2023-05-14T12:50:01;100239.19;;;19.75;39.33